Terminal Aerodrome Forecast
Issued by NWS

Home | Current Version | Previous Version | Text Only | Print | Product List | Glossary On
Versions: 1 2 3 4 5 6 7 8 9 10 11 12 13 14 15 16 17
138
FTUS46 KLOX 291735
TAFSBA
TAF
KSBA 291735Z 2918/3018 VRB05KT P6SM SCT035 SCT250
      TEMPO 2918/2920 BKN035
     FM292000 20008KT P6SM SCT250
     FM292100 25012G20KT P6SM SCT250
     FM300300 33012KT P6SM SCT250 WS015/35030KT
     FM301000 01006KT P6SM SCT250=

USA.gov is the U.S. government's official web portal to all federal, state and local government web resources and services.